Time;durP1;ratioP1;P1;durP2;ratioP2;P2;SDS_P1;SDS_P2;PMS_P1;PMS_P2;Temp;Humidity;BMP_temperature;BMP_pressure;BME280_temperature;BME280_humidity;BME280_pressure;Samples;Min_cycle;Max_cycle;Signal;HPM_P1;HPM_P2
2021/10/11 00:01:48;;;;;;;20.73;10.80;;;3.80;97.30;;;;;;5052306;28;20690;-77
2021/10/11 00:04:14;;;;;;;18.47;10.07;;;3.80;97.30;;;;;;5053253;28;20245;-77
2021/10/11 00:06:40;;;;;;;19.50;9.63;;;3.90;97.30;;;;;;5052044;28;20176;-77
2021/10/11 00:09:06;;;;;;;20.90;10.37;;;3.90;97.30;;;;;;5053477;28;20795;-77
2021/10/11 00:11:31;;;;;;;19.80;9.80;;;3.90;97.30;;;;;;5052856;28;20410;-77
2021/10/11 00:13:57;;;;;;;21.60;10.23;;;3.80;97.30;;;;;;5053458;28;20794;-77
2021/10/11 00:16:22;;;;;;;18.53;9.80;;;3.90;97.30;;;;;;5052149;28;20174;-77
2021/10/11 00:18:48;;;;;;;20.03;9.70;;;3.80;97.30;;;;;;5051854;28;20199;-77
2021/10/11 00:21:15;;;;;;;22.70;11.47;;;3.80;97.30;;;;;;5052633;28;20611;-77
2021/10/11 00:23:42;;;;;;;23.23;10.70;;;3.80;97.30;;;;;;5051883;28;20231;-77
2021/10/11 00:26:07;;;;;;;22.97;10.83;;;3.80;97.30;;;;;;5052069;28;20922;-77
2021/10/11 00:28:33;;;;;;;24.57;9.73;;;3.90;97.30;;;;;;5051817;28;20433;-78
2021/10/11 00:30:59;;;;;;;21.60;10.20;;;3.90;97.30;;;;;;5055480;28;20248;-77
2021/10/11 00:33:24;;;;;;;20.17;9.03;;;3.90;97.30;;;;;;5057058;28;20581;-77
2021/10/11 00:35:50;;;;;;;20.93;10.00;;;3.90;97.30;;;;;;5057444;28;20187;-77
2021/10/11 00:38:15;;;;;;;21.30;9.70;;;3.80;97.30;;;;;;5055829;28;20172;-79
2021/10/11 00:40:41;;;;;;;18.97;9.57;;;3.70;97.30;;;;;;5056072;28;20189;-77
2021/10/11 00:43:06;;;;;;;23.30;10.50;;;3.60;97.30;;;;;;5055951;28;20197;-77
2021/10/11 00:45:32;;;;;;;22.50;10.53;;;3.60;97.30;;;;;;5056247;28;20154;-77
2021/10/11 00:47:57;;;;;;;23.63;11.50;;;3.60;97.30;;;;;;5055726;28;20235;-77
2021/10/11 00:50:23;;;;;;;22.10;11.00;;;3.60;97.30;;;;;;5054923;28;20637;-77
2021/10/11 00:52:49;;;;;;;21.67;10.40;;;3.60;97.30;;;;;;5055208;28;20190;-77
2021/10/11 00:55:14;;;;;;;18.50;10.37;;;3.60;97.30;;;;;;5055850;28;20163;-77
2021/10/11 00:57:40;;;;;;;20.50;10.43;;;3.70;97.30;;;;;;5055363;28;20221;-77
2021/10/11 01:00:07;;;;;;;18.87;9.37;;;3.60;97.30;;;;;;5054853;28;20219;-76
2021/10/11 01:02:33;;;;;;;19.63;9.30;;;3.70;97.30;;;;;;5054460;28;20215;-77
2021/10/11 01:04:59;;;;;;;16.80;9.27;;;3.60;97.30;;;;;;5056736;28;20440;-78
2021/10/11 01:07:24;;;;;;;17.97;10.40;;;3.60;97.30;;;;;;5064727;28;20512;-78
2021/10/11 01:09:50;;;;;;;18.80;8.70;;;3.60;97.30;;;;;;5075009;28;20197;-77
2021/10/11 01:12:15;;;;;;;18.67;9.40;;;3.50;97.30;;;;;;5074367;28;20227;-77
2021/10/11 01:14:41;;;;;;;23.20;10.20;;;3.50;97.30;;;;;;5072650;28;20580;-77
2021/10/11 01:17:08;;;;;;;20.40;10.30;;;3.50;97.30;;;;;;5072600;28;20263;-77
2021/10/11 01:19:35;;;;;;;18.97;9.17;;;3.50;97.30;;;;;;5074162;28;20422;-77
2021/10/11 01:22:00;;;;;;;16.70;8.80;;;3.50;97.30;;;;;;5071875;28;25075;-78
2021/10/11 01:24:26;;;;;;;17.90;9.30;;;3.50;97.30;;;;;;5072093;28;20370;-77
2021/10/11 01:26:52;;;;;;;19.03;9.37;;;3.50;97.30;;;;;;5072405;28;20521;-77
2021/10/11 01:29:17;;;;;;;19.20;10.17;;;3.50;97.30;;;;;;5072606;28;20171;-78
2021/10/11 01:31:43;;;;;;;17.85;8.90;;;3.40;97.30;;;;;;5073305;28;20175;-78
2021/10/11 01:34:12;;;;;;;18.70;9.33;;;3.40;97.30;;;;;;5072342;28;20693;-77
2021/10/11 01:36:37;;;;;;;21.57;10.90;;;3.40;97.30;;;;;;5072246;28;20381;-78
2021/10/11 01:39:06;;;;;;;17.90;9.13;;;3.40;97.30;;;;;;5071946;28;20429;-78
2021/10/11 01:41:32;;;;;;;20.65;9.60;;;3.40;97.30;;;;;;5072320;28;20424;-77
2021/10/11 01:43:58;;;;;;;23.53;10.13;;;3.40;97.30;;;;;;5071837;28;20415;-78
2021/10/11 01:46:23;;;;;;;21.50;10.50;;;3.40;97.30;;;;;;5071600;28;20138;-77
2021/10/11 01:48:49;;;;;;;34.50;11.80;;;3.40;97.30;;;;;;5072520;28;20197;-77
2021/10/11 01:51:14;;;;;;;25.77;11.77;;;3.50;97.30;;;;;;5068061;28;20198;-78
2021/10/11 01:53:40;;;;;;;22.53;9.80;;;3.60;97.30;;;;;;5071748;28;20155;-78
2021/10/11 01:56:06;;;;;;;29.47;11.87;;;3.60;97.30;;;;;;5072007;28;20023;-76
2021/10/11 01:58:32;;;;;;;18.20;9.60;;;3.70;97.30;;;;;;5072968;28;20078;-78
2021/10/11 02:01:00;;;;;;;22.63;10.17;;;3.70;97.30;;;;;;5072801;28;20191;-78
2021/10/11 02:03:25;;;;;;;18.70;9.50;;;3.80;97.30;;;;;;5071582;28;20447;-77
2021/10/11 02:05:51;;;;;;;19.13;9.97;;;3.80;97.30;;;;;;5072888;28;20282;-78
2021/10/11 02:08:17;;;;;;;23.47;9.80;;;3.90;97.30;;;;;;5071494;28;20226;-78
2021/10/11 02:10:42;;;;;;;18.33;9.17;;;3.80;97.30;;;;;;5071555;28;20605;-78
2021/10/11 02:13:08;;;;;;;19.20;9.10;;;3.70;97.30;;;;;;5072047;28;20138;-78
2021/10/11 02:15:33;;;;;;;20.23;11.27;;;3.60;97.30;;;;;;5071902;28;20587;-78
2021/10/11 02:17:59;;;;;;;21.13;10.60;;;3.60;97.30;;;;;;5072409;28;20674;-77
2021/10/11 02:20:25;;;;;;;30.73;10.83;;;3.50;97.30;;;;;;5071370;28;20496;-78
2021/10/11 02:22:52;;;;;;;18.30;11.30;;;3.60;97.30;;;;;;5070925;28;20092;-77
2021/10/11 02:25:17;;;;;;;25.37;10.13;;;3.60;97.30;;;;;;5070864;28;21037;-78
2021/10/11 02:27:43;;;;;;;28.33;9.80;;;3.60;97.30;;;;;;5071132;28;20429;-77
2021/10/11 02:30:11;;;;;;;22.90;9.90;;;3.70;97.30;;;;;;5071088;28;20144;-78
2021/10/11 02:32:38;;;;;;;25.43;10.73;;;3.70;97.30;;;;;;5070883;28;20153;-77
2021/10/11 02:35:05;;;;;;;26.23;9.83;;;3.80;97.30;;;;;;5070818;28;20490;-77
2021/10/11 02:37:31;;;;;;;26.13;11.73;;;3.80;97.30;;;;;;5072387;28;20477;-77
2021/10/11 02:39:57;;;;;;;23.37;10.50;;;3.80;97.30;;;;;;5072676;28;20367;-77
2021/10/11 02:42:23;;;;;;;23.47;10.40;;;3.80;97.30;;;;;;5072522;28;20119;-77
2021/10/11 02:44:48;;;;;;;24.53;10.30;;;3.80;97.30;;;;;;5071235;28;20236;-77
2021/10/11 02:47:14;;;;;;;24.15;10.50;;;3.80;97.30;;;;;;5071182;28;20223;-77
2021/10/11 02:49:40;;;;;;;25.43;10.57;;;3.80;97.30;;;;;;5059619;28;20023;-78
2021/10/11 02:52:06;;;;;;;20.25;9.45;;;3.70;97.30;;;;;;5053138;28;20259;-77
2021/10/11 02:54:32;;;;;;;24.23;11.00;;;3.70;97.30;;;;;;5054257;28;20456;-77
2021/10/11 02:56:57;;;;;;;22.83;10.20;;;3.70;97.30;;;;;;5053480;28;20150;-78
2021/10/11 02:59:23;;;;;;;22.37;10.53;;;3.80;97.30;;;;;;5053948;28;20197;-78
2021/10/11 03:01:49;;;;;;;20.67;9.30;;;3.70;97.30;;;;;;5059510;28;20378;-78
2021/10/11 03:04:14;;;;;;;19.40;8.67;;;3.70;97.30;;;;;;5075494;28;20090;-78
2021/10/11 03:06:40;;;;;;;18.27;9.00;;;3.70;97.30;;;;;;5075721;28;20193;-78
2021/10/11 03:09:06;;;;;;;22.73;10.90;;;3.70;97.30;;;;;;5077827;28;20437;-78
2021/10/11 03:11:31;;;;;;;24.80;9.90;;;3.70;97.30;;;;;;5073111;28;20062;-77
2021/10/11 03:13:57;;;;;;;22.87;9.67;;;3.80;97.30;;;;;;5071921;28;20497;-77
2021/10/11 03:16:23;;;;;;;17.97;9.60;;;3.90;97.30;;;;;;5061305;28;20148;-78
2021/10/11 03:18:49;;;;;;;22.77;11.17;;;3.90;97.30;;;;;;5065733;28;20195;-78
2021/10/11 03:21:20;;;;;;;20.93;10.50;;;4.00;97.30;;;;;;5071580;28;20210;-78
2021/10/11 03:23:50;;;;;;;19.63;9.03;;;4.00;97.30;;;;;;5073280;28;20679;-78
2021/10/11 03:26:17;;;;;;;23.63;10.13;;;4.00;97.30;;;;;;5070995;28;20522;-78
2021/10/11 03:28:42;;;;;;;23.40;11.57;;;4.00;97.30;;;;;;5059739;28;20401;-79
2021/10/11 03:31:08;;;;;;;20.47;10.90;;;4.00;97.30;;;;;;5063703;28;20793;-78
2021/10/11 03:33:34;;;;;;;21.13;8.67;;;4.00;97.30;;;;;;5061426;28;20163;-78
2021/10/11 03:35:59;;;;;;;32.23;10.00;;;4.10;97.30;;;;;;5068822;28;20140;-78
2021/10/11 03:38:25;;;;;;;15.93;8.83;;;4.10;97.30;;;;;;5061841;28;20301;-78
2021/10/11 03:40:51;;;;;;;22.50;9.27;;;4.00;97.30;;;;;;5062247;28;20196;-78
2021/10/11 03:43:16;;;;;;;21.33;9.73;;;4.00;97.30;;;;;;5062749;28;20192;-78
2021/10/11 03:45:42;;;;;;;22.10;8.47;;;4.00;97.30;;;;;;5065738;28;20139;-77
2021/10/11 03:48:08;;;;;;;19.97;8.83;;;4.00;97.30;;;;;;5066859;28;20149;-78
2021/10/11 03:50:33;;;;;;;21.03;9.10;;;4.00;97.30;;;;;;5061415;28;20593;-78
2021/10/11 03:52:59;;;;;;;18.97;9.50;;;4.10;97.30;;;;;;5060018;28;20139;-78
2021/10/11 03:55:24;;;;;;;19.60;9.67;;;4.10;97.30;;;;;;5067428;28;20166;-77
2021/10/11 03:57:50;;;;;;;17.43;8.90;;;4.10;97.30;;;;;;5055343;28;20155;-78
2021/10/11 04:00:15;;;;;;;15.43;9.17;;;4.00;97.30;;;;;;5063270;28;20222;-77
2021/10/11 04:02:41;;;;;;;25.20;9.80;;;4.00;97.30;;;;;;5070799;28;20220;-77
2021/10/11 04:05:08;;;;;;;24.00;9.17;;;4.10;97.30;;;;;;5066287;28;20204;-78
2021/10/11 04:07:34;;;;;;;20.10;11.77;;;4.10;97.30;;;;;;5061384;28;20142;-78
2021/10/11 04:10:03;;;;;;;20.83;9.87;;;4.10;97.30;;;;;;5064848;28;20419;-77
2021/10/11 04:12:35;;;;;;;23.90;10.03;;;4.20;97.30;;;;;;5064537;28;20918;-76
2021/10/11 04:15:06;;;;;;;19.40;9.70;;;4.20;97.30;;;;;;5066307;28;20918;-77
2021/10/11 04:17:37;;;;;;;27.30;9.67;;;4.30;97.30;;;;;;5065758;28;20472;-77
2021/10/11 04:20:06;;;;;;;22.63;10.53;;;4.30;97.30;;;;;;5064500;28;20455;-77
2021/10/11 04:22:32;;;;;;;22.20;10.90;;;4.30;97.30;;;;;;5072504;28;20395;-76
2021/10/11 04:24:58;;;;;;;19.33;10.43;;;4.40;97.30;;;;;;5064020;28;20440;-77
2021/10/11 04:27:24;;;;;;;24.77;10.57;;;4.50;97.30;;;;;;5062778;28;20461;-78
2021/10/11 04:29:49;;;;;;;18.93;8.90;;;4.50;97.30;;;;;;5075095;28;20189;-77
2021/10/11 04:32:15;;;;;;;29.53;11.47;;;4.60;97.30;;;;;;5075796;28;20616;-77
2021/10/11 04:34:40;;;;;;;27.40;10.60;;;4.70;97.30;;;;;;5063080;28;20750;-77
2021/10/11 04:37:06;;;;;;;22.03;11.50;;;4.70;97.30;;;;;;5053787;28;20240;-77
2021/10/11 04:39:31;;;;;;;24.97;10.93;;;4.70;97.30;;;;;;5053998;28;20182;-77
2021/10/11 04:41:57;;;;;;;19.90;9.40;;;4.80;97.30;;;;;;5054210;28;20189;-77
2021/10/11 04:44:23;;;;;;;20.47;9.73;;;4.80;97.30;;;;;;5052462;28;20159;-77
2021/10/11 04:46:48;;;;;;;19.03;9.07;;;4.90;97.30;;;;;;5054193;28;20189;-77
2021/10/11 04:49:14;;;;;;;22.90;10.20;;;4.90;97.30;;;;;;5063879;28;20154;-77
2021/10/11 04:51:39;;;;;;;19.80;10.33;;;4.90;97.30;;;;;;5076031;28;20166;-77
2021/10/11 04:54:05;;;;;;;21.33;9.80;;;5.00;97.30;;;;;;5074943;28;20270;-77
2021/10/11 04:56:31;;;;;;;15.30;8.90;;;5.00;97.30;;;;;;5075139;28;20597;-77
2021/10/11 04:58:57;;;;;;;21.37;10.07;;;5.10;97.30;;;;;;5073665;28;20471;-77
2021/10/11 05:01:22;;;;;;;18.80;9.53;;;5.10;97.30;;;;;;5073891;28;20186;-77
2021/10/11 05:03:48;;;;;;;17.83;8.40;;;5.10;97.30;;;;;;5073485;28;20211;-77
2021/10/11 05:06:13;;;;;;;20.00;9.20;;;5.10;97.30;;;;;;5073529;28;20217;-77
2021/10/11 05:08:40;;;;;;;20.87;8.53;;;5.20;97.30;;;;;;5073441;28;20562;-77
2021/10/11 05:11:05;;;;;;;19.03;9.23;;;5.20;97.30;;;;;;5074780;28;20193;-76
2021/10/11 05:13:31;;;;;;;24.40;9.73;;;5.20;97.30;;;;;;5074427;28;20443;-77
2021/10/11 05:15:58;;;;;;;16.87;8.90;;;5.20;97.30;;;;;;5073123;28;20189;-76
2021/10/11 05:18:23;;;;;;;19.47;9.50;;;5.20;97.30;;;;;;5073433;28;20212;-78
2021/10/11 05:20:50;;;;;;;20.33;9.70;;;5.30;97.30;;;;;;5074317;28;20422;-77
2021/10/11 05:23:17;;;;;;;19.73;9.30;;;5.30;97.30;;;;;;5072916;28;20162;-75
2021/10/11 05:25:44;;;;;;;23.10;10.10;;;5.30;97.30;;;;;;5072954;28;20378;-77
2021/10/11 05:28:10;;;;;;;24.43;10.23;;;5.30;97.30;;;;;;5074563;28;20381;-77
2021/10/11 05:30:40;;;;;;;20.83;9.93;;;5.30;97.30;;;;;;5073277;28;20373;-77
2021/10/11 05:33:07;;;;;;;22.10;9.97;;;5.40;97.30;;;;;;5073468;28;20148;-77
2021/10/11 05:35:33;;;;;;;26.73;9.70;;;5.40;97.30;;;;;;5072977;28;20471;-77
2021/10/11 05:37:58;;;;;;;23.53;9.77;;;5.40;97.30;;;;;;5073320;28;20510;-77
2021/10/11 05:40:24;;;;;;;20.13;9.43;;;5.40;97.30;;;;;;5072490;28;20215;-77
2021/10/11 05:42:49;;;;;;;25.10;10.60;;;5.40;97.30;;;;;;5072943;28;20527;-77
2021/10/11 05:45:15;;;;;;;22.13;11.37;;;5.50;97.30;;;;;;5074934;28;20163;-77
2021/10/11 05:47:41;;;;;;;19.70;8.57;;;5.50;97.30;;;;;;5073664;28;20166;-77
2021/10/11 05:50:09;;;;;;;22.93;9.00;;;5.50;97.30;;;;;;5072749;28;20147;-77
2021/10/11 05:52:35;;;;;;;18.17;8.33;;;5.50;97.30;;;;;;5056534;28;20201;-76
2021/10/11 05:55:01;;;;;;;18.33;9.43;;;5.60;97.30;;;;;;5052838;28;20397;-77
2021/10/11 05:57:26;;;;;;;18.60;9.80;;;5.60;97.30;;;;;;5054259;28;20406;-77
2021/10/11 05:59:52;;;;;;;26.30;10.43;;;5.60;97.30;;;;;;5052315;28;20135;-78
2021/10/11 06:02:17;;;;;;;23.60;9.30;;;5.60;97.30;;;;;;5051997;28;20143;-77
2021/10/11 06:04:43;;;;;;;19.47;8.77;;;5.60;97.30;;;;;;5052245;28;20672;-77
2021/10/11 06:07:09;;;;;;;21.40;9.73;;;5.60;97.30;;;;;;5053923;28;20502;-78
2021/10/11 06:09:34;;;;;;;18.37;9.47;;;5.70;97.30;;;;;;5052748;28;20370;-75
2021/10/11 06:12:00;;;;;;;16.63;8.70;;;5.70;97.30;;;;;;5052115;28;20140;-77
2021/10/11 06:14:25;;;;;;;24.77;9.90;;;5.80;97.30;;;;;;5052802;28;20214;-78
2021/10/11 06:16:51;;;;;;;19.13;9.00;;;5.80;97.30;;;;;;5051955;28;20162;-77
2021/10/11 06:19:17;;;;;;;20.57;9.80;;;5.80;97.30;;;;;;5052932;28;20265;-76
2021/10/11 06:21:42;;;;;;;25.00;9.50;;;5.80;97.30;;;;;;5052638;28;20182;-77
2021/10/11 06:24:11;;;;;;;18.27;9.30;;;5.90;97.30;;;;;;5053108;28;20566;-76
2021/10/11 06:26:36;;;;;;;25.83;10.80;;;5.90;97.30;;;;;;5050607;28;20186;-76
2021/10/11 06:29:02;;;;;;;26.60;11.67;;;6.00;97.30;;;;;;5052085;28;20425;-76
2021/10/11 06:31:27;;;;;;;31.17;12.20;;;6.00;97.30;;;;;;5051224;28;20163;-77
2021/10/11 06:33:53;;;;;;;22.20;10.60;;;6.00;97.30;;;;;;5052957;28;20300;-77
2021/10/11 06:36:19;;;;;;;27.37;12.53;;;6.10;97.30;;;;;;5071744;28;20171;-77
2021/10/11 06:38:44;;;;;;;26.83;12.43;;;6.10;97.30;;;;;;5071649;28;20207;-77
2021/10/11 06:41:10;;;;;;;29.67;12.40;;;6.20;97.30;;;;;;5071732;28;20658;-75
2021/10/11 06:43:35;;;;;;;31.37;14.40;;;6.20;97.30;;;;;;5073162;28;20202;-78
2021/10/11 06:46:01;;;;;;;33.00;12.50;;;6.30;97.30;;;;;;5071273;28;20278;-76
2021/10/11 06:48:26;;;;;;;32.87;12.10;;;6.30;97.30;;;;;;5071171;28;20191;-77
2021/10/11 06:50:52;;;;;;;29.67;13.27;;;6.40;97.30;;;;;;5071164;28;20182;-77
2021/10/11 06:53:18;;;;;;;27.13;11.70;;;6.40;97.30;;;;;;5052205;28;20534;-76
2021/10/11 06:55:43;;;;;;;21.30;11.37;;;6.50;97.30;;;;;;5050650;28;20198;-77
2021/10/11 06:58:09;;;;;;;23.77;12.00;;;6.50;97.30;;;;;;5050897;28;20209;-77
2021/10/11 07:00:36;;;;;;;25.50;11.80;;;6.60;97.30;;;;;;5054351;28;20229;-76
2021/10/11 07:03:04;;;;;;;27.27;11.20;;;6.70;97.30;;;;;;5072136;28;20542;-77
2021/10/11 07:05:30;;;;;;;22.03;9.63;;;6.80;97.30;;;;;;5071925;28;20445;-76
2021/10/11 07:07:58;;;;;;;25.73;11.30;;;6.90;97.30;;;;;;5070354;28;21163;-77
2021/10/11 07:10:24;;;;;;;19.33;10.30;;;7.00;97.30;;;;;;5070122;28;20448;-76
2021/10/11 07:12:49;;;;;;;24.60;13.30;;;7.10;97.30;;;;;;5071764;28;20414;-75
2021/10/11 07:15:15;;;;;;;26.83;10.57;;;7.20;97.30;;;;;;5071974;28;20202;-77
2021/10/11 07:17:40;;;;;;;27.10;11.20;;;7.30;97.30;;;;;;5070297;28;20195;-77
2021/10/11 07:20:06;;;;;;;29.33;11.17;;;7.40;97.30;;;;;;5071173;28;20175;-77
2021/10/11 07:22:32;;;;;;;23.07;11.37;;;7.50;97.30;;;;;;5057390;28;20176;-77
2021/10/11 07:24:57;;;;;;;32.03;11.90;;;7.60;97.30;;;;;;5051477;28;20766;-77
2021/10/11 07:27:23;;;;;;;21.40;11.03;;;7.80;97.30;;;;;;5050697;28;20180;-78
2021/10/11 07:29:49;;;;;;;23.43;10.10;;;7.90;97.30;;;;;;5050107;28;20270;-77
2021/10/11 07:32:14;;;;;;;25.50;11.63;;;8.00;97.30;;;;;;5050630;28;20186;-77
2021/10/11 07:34:40;;;;;;;27.20;12.17;;;8.00;97.30;;;;;;5058808;28;20688;-76
2021/10/11 07:37:06;;;;;;;27.30;11.80;;;8.10;97.30;;;;;;5070867;28;20389;-76
2021/10/11 07:39:32;;;;;;;28.60;12.50;;;8.20;97.30;;;;;;5070695;28;20537;-76
2021/10/11 07:41:59;;;;;;;23.10;12.30;;;8.30;97.30;;;;;;5069739;28;20179;-75
2021/10/11 07:44:25;;;;;;;23.60;11.50;;;8.40;97.30;;;;;;5071260;28;20429;-76
2021/10/11 07:46:52;;;;;;;27.27;11.37;;;8.40;97.30;;;;;;5069789;28;20500;-77
2021/10/11 07:49:18;;;;;;;26.00;11.37;;;8.40;97.30;;;;;;5070200;28;20172;-77
2021/10/11 07:51:44;;;;;;;32.80;13.50;;;8.50;97.30;;;;;;5068780;28;20428;-77
2021/10/11 07:54:09;;;;;;;24.43;10.17;;;8.50;97.30;;;;;;5069712;28;20681;-76
2021/10/11 07:56:37;;;;;;;30.77;11.93;;;8.50;97.30;;;;;;5070796;28;20179;-76
2021/10/11 07:59:03;;;;;;;30.50;12.47;;;8.60;97.30;;;;;;5070410;28;20186;-77
2021/10/11 08:01:28;;;;;;;36.77;12.50;;;8.60;97.30;;;;;;5061927;28;20462;-77
2021/10/11 08:03:55;;;;;;;35.30;13.80;;;8.60;97.30;;;;;;5051106;28;20446;-76
2021/10/11 08:06:20;;;;;;;26.57;12.40;;;8.60;97.30;;;;;;5049956;28;20174;-76
2021/10/11 08:08:46;;;;;;;34.57;13.30;;;8.70;97.30;;;;;;5049850;28;20426;-77
2021/10/11 08:11:12;;;;;;;36.63;14.30;;;8.70;97.30;;;;;;5060813;28;20179;-76
2021/10/11 08:13:38;;;;;;;37.20;14.07;;;8.70;97.30;;;;;;5053276;28;20691;-76
2021/10/11 08:16:04;;;;;;;28.40;12.13;;;8.70;97.30;;;;;;5048765;28;20406;-77
2021/10/11 08:18:30;;;;;;;32.63;13.57;;;8.70;97.30;;;;;;5049984;28;20199;-76
2021/10/11 08:20:55;;;;;;;37.63;14.97;;;8.80;97.30;;;;;;5049014;28;20922;-77
2021/10/11 08:23:21;;;;;;;34.03;14.37;;;8.80;97.30;;;;;;5050246;28;20187;-76
2021/10/11 08:25:46;;;;;;;29.13;13.07;;;8.80;97.30;;;;;;5050445;28;20221;-78
2021/10/11 08:28:12;;;;;;;29.37;12.83;;;8.80;97.30;;;;;;5051693;28;20181;-77
2021/10/11 08:30:37;;;;;;;32.13;14.13;;;8.80;97.30;;;;;;5051970;28;20515;-77
2021/10/11 08:33:03;;;;;;;30.37;14.33;;;8.90;97.30;;;;;;5049303;28;20153;-78
2021/10/11 08:35:29;;;;;;;27.67;12.50;;;8.90;97.30;;;;;;5055057;28;20219;-76
2021/10/11 08:37:54;;;;;;;32.27;14.30;;;8.90;97.30;;;;;;5056119;28;20209;-77
2021/10/11 08:40:21;;;;;;;35.77;14.53;;;8.90;97.30;;;;;;5064959;28;20141;-76
2021/10/11 08:42:48;;;;;;;31.57;13.43;;;8.90;97.30;;;;;;5070245;28;20143;-77
2021/10/11 08:45:14;;;;;;;32.27;13.30;;;8.80;97.30;;;;;;5061644;28;20398;-78
2021/10/11 08:47:40;;;;;;;31.23;13.47;;;8.80;97.30;;;;;;5059232;28;20466;-76
2021/10/11 08:50:07;;;;;;;41.57;15.17;;;8.90;97.30;;;;;;5073942;28;20242;-78
2021/10/11 08:52:32;;;;;;;39.80;16.23;;;8.90;97.30;;;;;;5066172;28;20389;-78
2021/10/11 08:54:58;;;;;;;32.70;14.27;;;8.90;97.30;;;;;;5063878;28;20451;-77
2021/10/11 08:57:33;;;;;;;33.50;14.13;;;8.90;97.30;;;;;;5059886;28;20218;-78
2021/10/11 09:00:16;;;;;;;38.73;15.47;;;8.90;97.30;;;;;;5069984;28;20808;-77
2021/10/11 09:02:56;;;;;;;31.80;14.67;;;9.00;97.30;;;;;;5075595;28;20403;-77
2021/10/11 09:05:32;;;;;;;41.83;15.33;;;9.00;97.30;;;;;;5056553;28;20409;-77
2021/10/11 09:08:07;;;;;;;41.60;17.67;;;8.90;97.30;;;;;;5057503;28;20415;-76
2021/10/11 09:11:06;;;;;;;38.97;16.57;;;8.90;97.30;;;;;;5064536;28;20377;-78
2021/10/11 09:13:39;;;;;;;45.50;17.77;;;8.90;97.30;;;;;;5073334;28;20945;-77
2021/10/11 09:16:39;;;;;;;40.40;17.10;;;8.90;97.30;;;;;;5074330;28;20411;-77
2021/10/11 09:19:19;;;;;;;47.73;17.57;;;8.90;97.30;;;;;;5073173;28;20428;-78
2021/10/11 09:21:46;;;;;;;46.33;19.83;;;8.80;97.30;;;;;;5073506;28;20442;-78
2021/10/11 09:24:19;;;;;;;45.93;17.90;;;8.80;97.30;;;;;;5073657;28;20455;-78
2021/10/11 09:26:54;;;;;;;49.20;19.77;;;8.90;97.30;;;;;;5073359;28;20377;-77
2021/10/11 09:29:33;;;;;;;54.10;22.30;;;8.80;97.30;;;;;;5059022;28;20484;-76
2021/10/11 09:32:09;;;;;;;49.07;19.50;;;8.80;97.30;;;;;;5054045;28;20459;-77
2021/10/11 09:34:38;;;;;;;46.70;17.97;;;8.80;97.30;;;;;;5052153;28;20479;-78
2021/10/11 09:37:05;;;;;;;49.10;19.07;;;8.80;97.30;;;;;;5053528;28;20374;-77
2021/10/11 09:39:37;;;;;;;47.93;19.50;;;8.70;97.30;;;;;;5051778;28;20425;-77
2021/10/11 09:42:05;;;;;;;51.17;18.97;;;8.70;97.30;;;;;;5056066;28;20451;-78
2021/10/11 09:44:31;;;;;;;52.40;19.23;;;8.70;97.30;;;;;;5073442;28;20400;-78
2021/10/11 09:49:25;;;;;;;52.80;21.77;;;8.80;97.30;;;;;;5073514;28;20369;-78
2021/10/11 09:51:52;;;;;;;50.87;20.13;;;8.80;97.30;;;;;;5072938;28;20897;-78
2021/10/11 09:54:18;;;;;;;54.73;20.37;;;8.80;97.30;;;;;;5072786;28;20644;-77
2021/10/11 09:56:43;;;;;;;53.50;21.90;;;8.80;97.30;;;;;;5071971;28;20377;-77
2021/10/11 09:59:10;;;;;;;58.57;20.60;;;8.80;97.30;;;;;;5073456;28;20149;-77
2021/10/11 10:01:38;;;;;;;50.47;20.50;;;8.90;97.30;;;;;;5070847;28;20223;-77
2021/10/11 10:04:04;;;;;;;54.70;20.75;;;8.90;97.30;;;;;;5070641;28;21047;-77
2021/10/11 10:06:32;;;;;;;61.17;21.60;;;8.90;97.30;;;;;;5070776;28;20417;-78
2021/10/11 10:09:02;;;;;;;64.65;22.00;;;8.90;97.30;;;;;;5072780;28;20425;-77
2021/10/11 10:11:32;;;;;;;57.67;22.07;;;8.90;97.30;;;;;;5071380;28;20422;-77
2021/10/11 10:13:58;;;;;;;54.80;21.70;;;8.90;97.30;;;;;;5072660;28;20452;-78
2021/10/11 10:16:24;;;;;;;63.13;23.00;;;9.00;97.30;;;;;;5072778;28;20413;-78
2021/10/11 10:18:50;;;;;;;57.73;22.37;;;9.00;97.30;;;;;;5071373;28;20205;-78
2021/10/11 10:21:16;;;;;;;61.23;21.93;;;9.10;97.30;;;;;;5071612;28;20406;-78
2021/10/11 10:23:53;;;;;;;52.30;21.07;;;9.10;97.30;;;;;;5070836;28;20732;-78
2021/10/11 10:26:27;;;;;;;61.70;21.50;;;9.10;97.30;;;;;;5071188;28;20914;-78
2021/10/11 10:28:54;;;;;;;63.10;23.30;;;9.10;97.30;;;;;;5072489;28;20405;-78
2021/10/11 10:31:37;;;;;;;62.03;22.77;;;9.20;97.30;;;;;;5071182;28;20457;-78
2021/10/11 10:34:21;;;;;;;59.97;21.30;;;9.20;97.30;;;;;;5070982;28;20446;-78
2021/10/11 10:37:04;;;;;;;55.47;20.17;;;9.20;97.30;;;;;;5071181;28;20483;-78
2021/10/11 10:39:45;;;;;;;65.33;22.70;;;9.30;97.30;;;;;;5071049;28;20931;-78
2021/10/11 10:42:29;;;;;;;60.10;22.37;;;9.30;97.30;;;;;;5071239;28;20402;-78
2021/10/11 10:44:56;;;;;;;65.63;22.27;;;9.30;97.30;;;;;;5070976;28;20433;-78
2021/10/11 10:47:31;;;;;;;51.00;20.10;;;9.40;97.30;;;;;;5070948;28;20786;-78
2021/10/11 10:49:57;;;;;;;59.60;22.60;;;9.40;97.30;;;;;;5070953;28;20527;-78
2021/10/11 10:52:23;;;;;;;58.10;23.33;;;9.40;97.30;;;;;;5072238;28;20499;-76
2021/10/11 10:54:55;;;;;;;56.70;22.23;;;9.50;97.30;;;;;;5070121;28;20198;-77
2021/10/11 10:57:27;;;;;;;60.37;21.57;;;9.50;97.30;;;;;;5070574;28;20988;-77
2021/10/11 10:59:54;;;;;;;55.37;20.50;;;9.60;97.30;;;;;;5072055;28;20557;-78
2021/10/11 11:02:21;;;;;;;52.27;22.50;;;9.70;97.30;;;;;;5070213;28;20997;-78
2021/10/11 11:05:03;;;;;;;61.13;22.53;;;9.70;97.30;;;;;;5070516;28;20421;-76
2021/10/11 11:07:33;;;;;;;63.50;19.70;;;9.80;97.30;;;;;;5081842;28;20918;-76
2021/10/11 11:10:11;;;;;;;68.67;23.00;;;9.80;97.30;;;;;;5089667;28;20444;-77
2021/10/11 11:12:38;;;;;;;65.53;22.03;;;9.90;97.30;;;;;;5090303;28;20424;-76
2021/10/11 11:15:07;;;;;;;64.23;20.60;;;9.90;97.30;;;;;;5091771;28;20425;-77
2021/10/11 11:17:38;;;;;;;57.03;22.67;;;10.00;97.30;;;;;;5090295;28;20465;-77
2021/10/11 11:20:12;;;;;;;61.60;22.97;;;10.00;97.30;;;;;;5092028;28;20390;-78
2021/10/11 11:22:38;;;;;;;52.53;20.50;;;10.10;97.30;;;;;;5089354;28;20447;-77
2021/10/11 11:25:05;;;;;;;56.57;21.00;;;10.10;97.30;;;;;;5089040;28;20476;-77
2021/10/11 11:27:37;;;;;;;56.80;19.67;;;10.10;97.30;;;;;;5091003;28;20182;-78
2021/10/11 11:30:09;;;;;;;53.77;20.50;;;10.20;97.30;;;;;;5092443;28;20936;-77
2021/10/11 11:32:57;;;;;;;62.40;21.30;;;10.20;97.30;;;;;;5090927;28;20485;-78
2021/10/11 11:35:31;;;;;;;47.67;19.67;;;10.30;97.30;;;;;;5091233;28;20434;-78
2021/10/11 11:38:00;;;;;;;50.83;20.40;;;10.40;97.30;;;;;;5082514;28;20464;-77
2021/10/11 11:40:29;;;;;;;51.90;19.27;;;10.40;97.30;;;;;;5070354;28;20406;-78
2021/10/11 11:42:55;;;;;;;50.80;19.30;;;10.50;97.30;;;;;;5070664;28;20421;-77
2021/10/11 11:45:23;;;;;;;45.77;20.23;;;10.70;97.30;;;;;;5070400;28;20465;-76
2021/10/11 11:47:49;;;;;;;43.90;18.83;;;10.90;97.30;;;;;;5071537;28;20467;-78
2021/10/11 11:50:23;;;;;;;50.47;18.97;;;11.00;97.30;;;;;;5070180;28;20439;-77
2021/10/11 11:53:10;;;;;;;48.40;17.90;;;11.00;97.30;;;;;;5071278;28;20401;-78
2021/10/11 11:55:37;;;;;;;48.40;19.67;;;11.10;97.30;;;;;;5070662;28;20404;-77
2021/10/11 11:58:04;;;;;;;41.67;18.80;;;11.10;97.30;;;;;;5070124;28;20568;-78
2021/10/11 12:00:31;;;;;;;45.30;19.57;;;11.10;97.30;;;;;;5071254;28;20544;-77
2021/10/11 12:02:59;;;;;;;43.87;18.23;;;11.20;97.30;;;;;;5069813;28;21262;-79
2021/10/11 12:05:25;;;;;;;52.03;19.20;;;11.30;97.30;;;;;;5070551;28;20437;-78
2021/10/11 12:07:51;;;;;;;37.13;17.20;;;11.60;97.30;;;;;;5070648;28;20415;-78
2021/10/11 12:10:24;;;;;;;36.23;15.37;;;12.00;97.30;;;;;;5072259;28;20414;-76
2021/10/11 12:12:57;;;;;;;36.73;14.53;;;12.40;97.30;;;;;;5069640;28;20183;-77
2021/10/11 12:15:23;;;;;;;33.00;14.13;;;12.50;97.30;;;;;;5062778;28;20434;-78
2021/10/11 12:17:49;;;;;;;31.10;13.97;;;12.60;97.30;;;;;;5051365;28;21076;-77
2021/10/11 12:20:16;;;;;;;31.83;13.87;;;12.80;97.30;;;;;;5050755;28;20180;-77
2021/10/11 12:22:42;;;;;;;31.30;14.07;;;12.90;97.30;;;;;;5050112;28;20897;-78
2021/10/11 12:25:09;;;;;;;29.67;13.77;;;13.10;97.30;;;;;;5052075;28;20431;-77
2021/10/11 12:27:35;;;;;;;31.47;13.30;;;13.20;97.30;;;;;;5037330;28;20184;-77
2021/10/11 12:30:07;;;;;;;28.10;12.60;;;13.40;97.30;;;;;;5054833;28;21053;-77
2021/10/11 12:32:35;;;;;;;29.87;12.93;;;13.40;97.30;;;;;;5053595;28;20545;-78
2021/10/11 12:35:01;;;;;;;32.30;13.00;;;13.50;97.30;;;;;;5053614;28;20517;-77
2021/10/11 12:37:43;;;;;;;33.73;11.30;;;13.70;97.30;;;;;;5054876;28;20939;-76
2021/10/11 12:40:11;;;;;;;25.43;11.80;;;14.00;97.30;;;;;;5053470;28;20422;-76
2021/10/11 12:42:45;;;;;;;30.43;12.70;;;14.10;97.30;;;;;;5054374;28;20402;-77